Time;durP1;ratioP1;P1;durP2;ratioP2;P2;SDS_P1;SDS_P2;PMS_P1;PMS_P2;Temp;Humidity;BMP_temperature;BMP_pressure;BME280_temperature;BME280_humidity;BME280_pressure;Samples;Min_cycle;Max_cycle;Signal;HPM_P1;HPM_P2
2023/03/13 00:00:47;;;;;;;;;;;11.10;99.90;;;;;;5005506;28;20407;-62
2023/03/13 00:03:12;;;;;;;;;;;11.20;99.90;;;;;;5008624;28;20375;-60
2023/03/13 00:05:38;;;;;;;;;;;11.10;99.90;;;;;;5004100;28;19928;-57
2023/03/13 00:08:03;;;;;;;;;;;11.00;99.90;;;;;;4986393;28;19924;-62
2023/03/13 00:10:29;;;;;;;;;;;11.00;99.90;;;;;;5006476;28;19914;-62
2023/03/13 00:12:54;;;;;;;;;;;11.10;99.90;;;;;;5008718;28;19918;-60
2023/03/13 00:15:19;;;;;;;;;;;11.10;99.90;;;;;;5005674;28;19967;-62
2023/03/13 00:17:45;;;;;;;;;;;11.10;99.90;;;;;;4991239;28;19913;-59
2023/03/13 00:20:11;;;;;;;;;;;11.10;99.90;;;;;;5006453;28;19914;-61
2023/03/13 00:22:36;;;;;;;;;;;11.00;99.90;;;;;;5005262;28;19921;-61
2023/03/13 00:25:01;;;;;;;;;;;11.00;99.90;;;;;;5002810;28;19917;-61
2023/03/13 00:27:30;;;;;;;;;;;11.00;99.90;;;;;;5004083;28;19913;-61
2023/03/13 00:29:56;;;;;;;;;;;11.00;99.90;;;;;;5005132;28;19990;-59
2023/03/13 00:32:21;;;;;;;;;;;11.00;99.90;;;;;;5005622;28;20364;-61
2023/03/13 00:34:47;;;;;;;;;;;11.00;99.90;;;;;;5003752;28;19962;-62
2023/03/13 00:37:12;;;;;;;;;;;11.00;99.90;;;;;;5007295;28;20343;-61
2023/03/13 00:39:38;;;;;;;;;;;11.10;99.90;;;;;;5004980;28;20321;-60
2023/03/13 00:42:04;;;;;;;;;;;11.20;99.90;;;;;;5003778;28;19922;-61
2023/03/13 00:44:29;;;;;;;;;;;11.30;99.90;;;;;;5005591;28;20071;-61
2023/03/13 00:46:55;;;;;;;;;;;11.40;99.90;;;;;;5008521;28;19914;-59
2023/03/13 00:49:20;;;;;;;;;;;11.40;99.90;;;;;;5007223;28;19914;-58
2023/03/13 00:51:45;;;;;;;;;;;11.50;99.90;;;;;;5008267;28;20015;-59
2023/03/13 00:54:11;;;;;;;;;;;11.40;99.90;;;;;;5007534;28;20375;-61
2023/03/13 00:56:36;;;;;;;;;;;11.50;99.90;;;;;;5010304;28;20538;-60
2023/03/13 00:59:02;;;;;;;;;;;11.40;99.90;;;;;;5007906;28;19940;-61
2023/03/13 01:01:29;;;;;;;;;;;11.40;99.90;;;;;;5010277;28;19968;-59
2023/03/13 01:03:56;;;;;;;;;;;11.50;99.90;;;;;;5010987;28;19929;-61
2023/03/13 01:06:23;;;;;;;;;;;11.70;99.90;;;;;;5006779;28;19921;-58
2023/03/13 01:08:49;;;;;;;;;;;11.70;99.90;;;;;;5009556;28;19929;-60
2023/03/13 01:11:15;;;;;;;;;;;11.70;99.90;;;;;;5007013;28;19913;-60
2023/03/13 01:13:41;;;;;;;;;;;11.70;99.90;;;;;;5008426;28;19917;-59
2023/03/13 01:16:16;;;;;;;;;;;11.80;99.90;;;;;;5008781;28;19955;-61
2023/03/13 01:18:43;;;;;;;;;;;11.90;99.90;;;;;;4989931;28;19924;-61
2023/03/13 01:21:09;;;;;;;;;;;11.80;99.90;;;;;;5009253;28;19921;-61
2023/03/13 01:23:34;;;;;;;;;;;11.80;99.90;;;;;;5010932;28;19960;-61
2023/03/13 01:26:00;;;;;;;;;;;11.90;99.90;;;;;;5010202;28;19929;-59
2023/03/13 01:28:25;;;;;;;;;;;11.90;99.90;;;;;;5009811;28;19949;-60
2023/03/13 01:30:51;;;;;;;;;;;11.90;99.90;;;;;;5008387;28;20302;-58
2023/03/13 01:33:17;;;;;;;;;;;11.90;99.90;;;;;;5007650;28;19914;-59
2023/03/13 01:35:42;;;;;;;;;;;12.00;99.90;;;;;;5009828;28;19918;-60
2023/03/13 01:38:08;;;;;;;;;;;12.00;99.90;;;;;;5008200;28;19941;-59
2023/03/13 01:40:44;;;;;;;;;;;12.10;99.90;;;;;;5009239;28;20303;-61
2023/03/13 01:43:19;;;;;;;;;;;12.10;99.90;;;;;;5009016;28;19917;-61
2023/03/13 01:45:57;;;;;;;;;;;12.10;99.90;;;;;;5008838;28;19929;-61
2023/03/13 01:48:29;;;;;;;;;;;12.10;99.90;;;;;;5010194;28;20401;-59
2023/03/13 01:50:55;;;;;;;;;;;12.10;99.90;;;;;;5009660;28;19925;-60
2023/03/13 01:53:22;;;;;;;;;;;12.10;99.90;;;;;;5005817;28;20334;-60
2023/03/13 01:55:48;;;;;;;;;;;12.00;99.90;;;;;;5004434;28;19996;-60
2023/03/13 01:58:13;;;;;;;;;;;12.00;99.90;;;;;;5007576;28;20016;-62
2023/03/13 02:00:41;;;;;;;;;;;12.10;99.90;;;;;;5005036;28;19913;-60
2023/03/13 02:03:09;;;;;;;;;;;12.10;99.90;;;;;;5006628;28;19920;-61
2023/03/13 02:05:36;;;;;;;;;;;12.10;99.90;;;;;;5007630;28;20655;-59
2023/03/13 02:08:01;;;;;;;;;;;12.10;99.90;;;;;;5007825;28;19914;-61
2023/03/13 02:10:28;;;;;;;;;;;12.00;99.90;;;;;;5008625;28;20508;-61
2023/03/13 02:12:54;;;;;;;;;;;12.10;99.90;;;;;;5005655;28;19936;-61
2023/03/13 02:15:21;;;;;;;;;;;12.00;99.90;;;;;;5008044;28;20363;-57
2023/03/13 02:17:47;;;;;;;;;;;12.00;99.90;;;;;;5006364;28;19917;-60
2023/03/13 02:20:14;;;;;;;;;;;12.00;99.90;;;;;;5009223;28;19918;-57
2023/03/13 02:22:39;;;;;;;;;;;12.00;99.90;;;;;;5005011;28;19996;-59
2023/03/13 02:25:04;;;;;;;;;;;12.00;99.90;;;;;;5005172;28;20004;-61
2023/03/13 02:27:30;;;;;;;;;;;12.00;99.90;;;;;;5006359;28;20302;-61
2023/03/13 02:29:56;;;;;;;;;;;12.00;99.90;;;;;;5007376;28;20446;-58
2023/03/13 02:32:22;;;;;;;;;;;11.90;99.90;;;;;;5007564;28;19914;-60
2023/03/13 02:34:48;;;;;;;;;;;11.90;99.90;;;;;;5009030;28;20395;-60
2023/03/13 02:37:14;;;;;;;;;;;11.90;99.90;;;;;;5008792;28;20016;-61
2023/03/13 02:39:42;;;;;;;;;;;11.80;99.90;;;;;;5010099;28;20335;-60
2023/03/13 02:42:07;;;;;;;;;;;11.70;99.90;;;;;;5006555;28;19960;-61
2023/03/13 02:44:36;;;;;;;;;;;11.60;99.90;;;;;;5007793;28;20011;-57
2023/03/13 02:47:02;;;;;;;;;;;11.50;99.90;;;;;;5005113;28;19921;-61
2023/03/13 02:49:28;;;;;;;;;;;11.40;99.90;;;;;;5006303;28;19917;-60
2023/03/13 02:51:56;;;;;;;;;;;11.40;99.90;;;;;;5007310;28;19914;-62
2023/03/13 02:54:27;;;;;;;;;;;11.40;99.90;;;;;;5010703;28;19921;-61
2023/03/13 02:56:54;;;;;;;;;;;11.40;99.90;;;;;;5006055;28;19921;-61
2023/03/13 02:59:20;;;;;;;;;;;11.40;99.90;;;;;;5004579;28;19933;-61
2023/03/13 03:01:45;;;;;;;;;;;11.40;99.90;;;;;;5005606;28;19914;-61
2023/03/13 03:04:11;;;;;;;;;;;11.40;99.90;;;;;;5005861;28;19968;-60
2023/03/13 03:06:37;;;;;;;;;;;11.40;99.90;;;;;;5003627;28;20422;-58
2023/03/13 03:09:02;;;;;;;;;;;11.40;99.90;;;;;;5009046;28;20045;-60
2023/03/13 03:11:28;;;;;;;;;;;11.40;99.90;;;;;;5005786;28;20453;-60
2023/03/13 03:13:53;;;;;;;;;;;11.40;99.90;;;;;;5010105;28;19928;-61
2023/03/13 03:16:19;;;;;;;;;;;11.40;99.90;;;;;;5004961;28;20062;-61
2023/03/13 03:18:45;;;;;;;;;;;11.40;99.90;;;;;;5008644;28;19966;-61
2023/03/13 03:21:10;;;;;;;;;;;11.40;99.90;;;;;;5006278;28;19914;-61
2023/03/13 03:23:36;;;;;;;;;;;11.50;99.90;;;;;;5006822;28;20383;-61
2023/03/13 03:26:02;;;;;;;;;;;11.40;99.90;;;;;;5005714;28;19918;-61
2023/03/13 03:28:28;;;;;;;;;;;11.50;99.90;;;;;;5006370;28;19913;-61
2023/03/13 03:30:53;;;;;;;;;;;11.50;99.90;;;;;;5004644;28;19918;-60
2023/03/13 03:33:20;;;;;;;;;;;11.60;99.90;;;;;;5005964;28;19939;-59
2023/03/13 03:35:45;;;;;;;;;;;11.60;99.90;;;;;;5006858;28;19913;-60
2023/03/13 03:38:11;;;;;;;;;;;11.60;99.90;;;;;;5008739;28;19929;-60
2023/03/13 03:40:36;;;;;;;;;;;11.60;99.90;;;;;;5000363;28;19921;-59
2023/03/13 03:43:02;;;;;;;;;;;11.60;99.90;;;;;;5009880;28;19920;-59
2023/03/13 03:45:27;;;;;;;;;;;11.80;99.90;;;;;;5008022;28;19917;-55
2023/03/13 03:47:53;;;;;;;;;;;11.80;99.90;;;;;;5006159;28;19924;-57
2023/03/13 03:50:18;;;;;;;;;;;11.80;99.90;;;;;;5005218;28;19918;-61
2023/03/13 03:52:44;;;;;;;;;;;11.80;99.90;;;;;;5003442;28;19945;-60
2023/03/13 03:55:09;;;;;;;;;;;11.80;99.90;;;;;;5007943;28;20390;-58
2023/03/13 03:57:34;;;;;;;;;;;11.80;99.90;;;;;;5005195;28;19913;-59
2023/03/13 04:00:00;;;;;;;;;;;11.90;99.90;;;;;;5002353;28;19920;-62
2023/03/13 04:02:25;;;;;;;;;;;11.90;99.90;;;;;;5000530;28;19960;-61
2023/03/13 04:04:51;;;;;;;;;;;11.90;99.90;;;;;;5007311;28;19918;-60
2023/03/13 04:07:16;;;;;;;;;;;12.00;99.90;;;;;;5006325;28;20290;-57
2023/03/13 04:09:42;;;;;;;;;;;12.00;99.90;;;;;;5004059;28;19975;-61
2023/03/13 04:12:07;;;;;;;;;;;12.10;99.90;;;;;;5006621;28;19976;-59
2023/03/13 04:14:33;;;;;;;;;;;12.10;99.90;;;;;;4988299;28;19929;-61
2023/03/13 04:16:58;;;;;;;;;;;12.10;99.90;;;;;;5007274;28;19922;-59
2023/03/13 04:19:24;;;;;;;;;;;12.10;99.90;;;;;;5006873;28;19921;-58
2023/03/13 04:21:49;;;;;;;;;;;12.20;99.90;;;;;;5009422;28;19918;-60
2023/03/13 04:24:15;;;;;;;;;;;12.20;99.90;;;;;;5009804;28;19924;-60
2023/03/13 04:26:40;;;;;;;;;;;12.30;99.90;;;;;;5010158;28;19913;-59
2023/03/13 04:29:05;;;;;;;;;;;12.20;99.90;;;;;;5008285;28;20358;-60
2023/03/13 04:31:32;;;;;;;;;;;12.20;99.90;;;;;;5008988;28;19914;-61
2023/03/13 04:33:57;;;;;;;;;;;12.30;99.90;;;;;;5010584;28;20360;-59
2023/03/13 04:36:23;;;;;;;;;;;12.20;99.90;;;;;;5010585;28;20016;-60
2023/03/13 04:38:48;;;;;;;;;;;12.20;99.90;;;;;;5009089;28;19941;-60
2023/03/13 04:41:13;;;;;;;;;;;12.20;99.90;;;;;;5010201;28;19955;-59
2023/03/13 04:43:39;;;;;;;;;;;12.20;99.90;;;;;;5011951;28;19913;-60
2023/03/13 04:46:04;;;;;;;;;;;12.20;99.90;;;;;;5009754;28;20379;-61
2023/03/13 04:48:30;;;;;;;;;;;12.20;99.90;;;;;;5009689;28;20395;-61
2023/03/13 04:50:55;;;;;;;;;;;12.20;99.90;;;;;;5007333;28;19952;-60
2023/03/13 04:53:21;;;;;;;;;;;12.20;99.90;;;;;;5011240;28;20310;-61
2023/03/13 04:55:47;;;;;;;;;;;12.20;99.90;;;;;;5011885;28;19917;-59
2023/03/13 04:58:13;;;;;;;;;;;;;;;;;;5008845;28;19914;-59
2023/03/13 05:00:39;;;;;;;;;;;;;;;;;;5008836;28;20492;-60
2023/03/13 05:03:05;;;;;;;;;;;;;;;;;;5007809;28;19932;-59
2023/03/13 05:05:31;;;;;;;;;;;;;;;;;;5012081;28;19917;-61
2023/03/13 05:07:57;;;;;;;;;;;;;;;;;;5009955;28;20016;-58
2023/03/13 05:10:22;;;;;;;;;;;;;;;;;;5010094;28;19920;-58
2023/03/13 05:12:48;;;;;;;;;;;;;;;;;;5011279;28;20407;-58
2023/03/13 05:15:14;;;;;;;;;;;;;;;;;;5010153;28;19918;-60
2023/03/13 05:17:40;;;;;;;;;;;12.20;99.90;;;;;;5009472;28;20533;-60
2023/03/13 05:20:08;;;;;;;;;;;12.40;99.90;;;;;;5005971;28;19914;-61
2023/03/13 05:22:34;;;;;;;;;;;12.50;99.90;;;;;;5006553;28;19913;-60
2023/03/13 05:24:59;;;;;;;;;;;12.50;99.90;;;;;;5007492;28;19967;-61
2023/03/13 05:27:25;;;;;;;;;;;12.40;99.90;;;;;;5008186;28;19960;-60
2023/03/13 05:29:50;;;;;;;;;;;12.40;99.90;;;;;;5007649;28;19914;-60
2023/03/13 05:32:15;;;;;;;;;;;12.50;99.90;;;;;;5009299;28;20383;-58
2023/03/13 05:34:41;;;;;;;;;;;12.50;99.90;;;;;;5010914;28;19975;-62
2023/03/13 05:37:06;;;;;;;;;;;12.50;99.90;;;;;;5007922;28;19941;-58
2023/03/13 05:39:32;;;;;;;;;;;12.60;99.90;;;;;;5002812;28;19968;-59
2023/03/13 05:41:57;;;;;;;;;;;12.50;99.90;;;;;;5010226;28;20338;-59
2023/03/13 05:44:23;;;;;;;;;;;12.50;99.90;;;;;;5010953;28;20004;-59
2023/03/13 05:46:48;;;;;;;;;;;12.50;99.90;;;;;;5004614;28;20453;-55
2023/03/13 05:49:14;;;;;;;;;;;12.60;99.90;;;;;;5008065;28;19972;-62
2023/03/13 05:51:39;;;;;;;;;;;12.60;99.90;;;;;;5007578;28;19965;-60
2023/03/13 05:54:05;;;;;;;;;;;12.60;99.90;;;;;;5007148;28;19913;-61
2023/03/13 05:56:30;;;;;;;;;;;12.60;99.90;;;;;;5011735;28;19913;-62
2023/03/13 05:58:55;;;;;;;;;;;12.70;99.90;;;;;;5010385;28;20410;-61
2023/03/13 06:01:21;;;;;;;;;;;12.80;99.90;;;;;;5001260;28;20391;-60
2023/03/13 06:03:46;;;;;;;;;;;12.90;99.90;;;;;;5003396;28;19917;-61
2023/03/13 06:06:12;;;;;;;;;;;12.80;99.90;;;;;;5009007;28;19917;-61
2023/03/13 06:08:37;;;;;;;;;;;12.80;99.90;;;;;;5003640;28;19933;-61
2023/03/13 06:11:03;;;;;;;;;;;12.80;99.90;;;;;;5009341;28;19922;-61
2023/03/13 06:13:28;;;;;;;;;;;12.80;99.90;;;;;;5001895;28;19963;-60
2023/03/13 06:15:55;;;;;;;;;;;12.80;99.90;;;;;;5004934;28;19936;-58
2023/03/13 06:18:21;;;;;;;;;;;12.80;99.90;;;;;;5004211;28;19943;-60
2023/03/13 06:20:47;;;;;;;;;;;12.80;99.90;;;;;;5006145;28;19922;-61
2023/03/13 06:23:12;;;;;;;;;;;12.90;99.90;;;;;;5005894;28;19918;-58
2023/03/13 06:25:38;;;;;;;;;;;12.90;99.90;;;;;;5010382;28;19967;-60
2023/03/13 06:28:03;;;;;;;;;;;12.90;99.90;;;;;;5011029;28;20286;-58
2023/03/13 06:30:29;;;;;;;;;;;12.90;99.90;;;;;;5011965;28;20409;-62
2023/03/13 06:32:54;;;;;;;;;;;12.90;99.90;;;;;;4994421;28;19918;-60
2023/03/13 06:35:20;;;;;;;;;;;13.00;99.90;;;;;;5010768;28;19922;-60
2023/03/13 06:37:45;;;;;;;;;;;13.20;99.90;;;;;;4988891;28;20064;-59
2023/03/13 06:40:11;;;;;;;;;;;13.20;99.90;;;;;;4991045;28;19921;-60
2023/03/13 06:42:37;;;;;;;;;;;13.30;99.90;;;;;;5011666;28;19913;-62
2023/03/13 06:45:02;;;;;;;;;;;13.30;99.90;;;;;;5012334;28;19913;-60
2023/03/13 06:47:31;;;;;;;;;;;13.50;99.90;;;;;;4995046;28;20008;-61
2023/03/13 06:49:57;;;;;;;;;;;13.70;99.90;;;;;;4995042;28;19921;-60
2023/03/13 06:52:22;;;;;;;;;;;13.70;99.90;;;;;;4979264;28;19914;-58
2023/03/13 06:54:48;;;;;;;;;;;13.60;99.90;;;;;;5012320;28;20000;-62
2023/03/13 06:57:13;;;;;;;;;;;13.60;99.90;;;;;;4994166;28;19917;-58
2023/03/13 06:59:39;;;;;;;;;;;13.60;99.90;;;;;;5011512;28;19913;-59
2023/03/13 07:02:05;;;;;;;;;;;13.70;99.90;;;;;;5012435;28;19909;-58
2023/03/13 07:04:31;;;;;;;;;;;13.80;99.90;;;;;;4990673;28;19979;-57
2023/03/13 07:06:56;;;;;;;;;;;13.90;99.90;;;;;;4994041;28;20277;-58
2023/03/13 07:09:21;;;;;;;;;;;13.90;99.90;;;;;;4992611;28;20296;-59
2023/03/13 07:11:47;;;;;;;;;;;13.90;99.90;;;;;;5012909;28;19956;-59
2023/03/13 07:14:13;;;;;;;;;;;13.90;99.90;;;;;;4993809;28;20378;-61
2023/03/13 07:16:38;;;;;;;;;;;14.00;99.90;;;;;;4994660;28;19925;-61
2023/03/13 07:19:04;;;;;;;;;;;14.00;99.90;;;;;;5011968;28;19914;-58
2023/03/13 07:21:29;;;;;;;;;;;14.00;99.90;;;;;;4994555;28;19914;-59
2023/03/13 07:23:55;;;;;;;;;;;14.00;99.90;;;;;;5011173;28;19917;-59
2023/03/13 07:26:20;;;;;;;;;;;14.10;99.90;;;;;;4994722;28;19921;-59
2023/03/13 07:28:45;;;;;;;;;;;14.30;99.90;;;;;;4992963;28;20071;-61
2023/03/13 07:31:11;;;;;;;;;;;14.40;99.90;;;;;;5010340;28;19919;-58
2023/03/13 07:33:37;;;;;;;;;;;14.40;99.90;;;;;;5009239;28;20008;-58
2023/03/13 07:36:02;;;;;;;;;;;14.30;99.90;;;;;;5008768;28;20283;-58
2023/03/13 07:38:28;;;;;;;;;;;14.40;99.90;;;;;;5009211;28;20379;-59
2023/03/13 07:40:55;;;;;;;;;;;14.30;99.90;;;;;;5008100;28;19913;-59
2023/03/13 07:43:20;;;;;;;;;;;14.50;99.90;;;;;;5006103;28;19910;-60
2023/03/13 07:45:56;;;;;;;;;;;14.60;99.90;;;;;;5009713;28;20425;-57
2023/03/13 07:48:23;;;;;;;;;;;14.70;99.90;;;;;;5000102;28;19922;-58
2023/03/13 07:50:48;;;;;;;;;;;14.80;99.90;;;;;;5008243;28;20444;-55
2023/03/13 07:53:19;;;;;;;;;;;14.90;99.90;;;;;;5009780;28;19913;-61
2023/03/13 07:55:52;;;;;;;;;;;14.90;99.90;;;;;;5007588;28;19924;-61
2023/03/13 07:58:17;;;;;;;;;;;14.90;99.90;;;;;;5007086;28;20471;-59
2023/03/13 08:00:43;;;;;;;;;;;14.90;99.90;;;;;;5010354;28;19909;-61
2023/03/13 08:03:09;;;;;;;;;;;14.80;99.90;;;;;;5008278;28;20367;-60
2023/03/13 08:05:34;;;;;;;;;;;14.80;99.90;;;;;;5008728;28;19921;-59
2023/03/13 08:08:00;;;;;;;;;;;14.80;99.90;;;;;;5006956;28;20299;-61
2023/03/13 08:10:25;;;;;;;;;;;14.80;99.90;;;;;;5009378;28;19919;-59
2023/03/13 08:12:51;;;;;;;;;;;14.70;99.90;;;;;;5008441;28;20303;-53
2023/03/13 08:15:20;;;;;;;;;;;14.70;99.90;;;;;;5007191;28;19957;-59
2023/03/13 08:17:45;;;;;;;;;;;14.70;99.90;;;;;;5006522;28;19913;-59
2023/03/13 08:20:11;;;;;;;;;;;14.60;99.90;;;;;;5008147;28;19921;-59
2023/03/13 08:22:37;;;;;;;;;;;14.60;99.90;;;;;;5007264;28;19940;-60
2023/03/13 08:25:02;;;;;;;;;;;14.60;99.90;;;;;;5009824;28;19961;-58
2023/03/13 08:27:29;;;;;;;;;;;14.60;99.90;;;;;;5005620;28;19938;-57
2023/03/13 08:29:54;;;;;;;;;;;14.70;99.90;;;;;;5009430;28;20413;-59
2023/03/13 08:32:20;;;;;;;;;;;14.80;99.90;;;;;;5004992;28;20009;-57
2023/03/13 08:34:46;;;;;;;;;;;14.80;99.90;;;;;;5013497;28;19913;-60
2023/03/13 08:37:15;;;;;;;;;;;14.80;99.90;;;;;;5009090;28;19920;-58
2023/03/13 08:39:40;;;;;;;;;;;14.80;99.90;;;;;;5010284;28;19959;-61
2023/03/13 08:42:07;;;;;;;;;;;14.80;99.90;;;;;;5009221;28;19988;-61
2023/03/13 08:44:32;;;;;;;;;;;14.70;99.90;;;;;;5009865;28;19913;-60
2023/03/13 08:46:58;;;;;;;;;;;14.70;99.90;;;;;;5008125;28;19933;-61
2023/03/13 08:49:24;;;;;;;;;;;14.60;99.90;;;;;;5010581;28;19913;-60
2023/03/13 08:51:49;;;;;;;;;;;14.70;99.90;;;;;;5011489;28;19909;-59
2023/03/13 08:54:15;;;;;;;;;;;14.60;99.90;;;;;;5010503;28;19913;-58
2023/03/13 08:56:42;;;;;;;;;;;14.70;99.90;;;;;;5011627;28;19909;-59
2023/03/13 08:59:08;;;;;;;;;;;14.70;99.90;;;;;;5010979;28;19914;-61
2023/03/13 09:01:34;;;;;;;;;;;14.80;99.90;;;;;;5010922;28;20029;-62
2023/03/13 09:04:00;;;;;;;;;;;14.80;99.90;;;;;;5010809;28;19936;-61
2023/03/13 09:06:25;;;;;;;;;;;14.80;99.90;;;;;;5010911;28;20375;-58
2023/03/13 09:08:51;;;;;;;;;;;14.80;99.90;;;;;;5008238;28;19929;-60
2023/03/13 09:11:18;;;;;;;;;;;14.80;99.90;;;;;;5014594;28;20438;-62
2023/03/13 09:13:45;;;;;;;;;;;14.80;99.90;;;;;;5008212;28;19913;-60
2023/03/13 09:16:12;;;;;;;;;;;14.80;99.90;;;;;;5012639;28;19914;-58
2023/03/13 09:18:37;;;;;;;;;;;14.80;99.90;;;;;;5014681;28;19917;-59
2023/03/13 09:21:04;;;;;;;;;;;14.80;99.90;;;;;;5013266;28;19913;-58
2023/03/13 09:23:30;;;;;;;;;;;14.80;99.90;;;;;;5013938;28;19914;-58
2023/03/13 09:25:56;;;;;;;;;;;14.80;99.90;;;;;;5018565;28;20471;-59
2023/03/13 09:28:22;;;;;;;;;;;14.80;99.90;;;;;;5014367;28;19960;-59
2023/03/13 09:30:48;;;;;;;;;;;14.90;99.90;;;;;;5014375;28;19959;-60
2023/03/13 09:33:15;;;;;;;;;;;14.90;99.90;;;;;;4996083;28;19921;-59
2023/03/13 09:35:40;;;;;;;;;;;14.90;99.90;;;;;;5013987;28;20543;-62
2023/03/13 09:38:06;;;;;;;;;;;14.90;99.90;;;;;;5008953;28;20009;-62
2023/03/13 09:40:40;;;;;;;;;;;14.80;99.90;;;;;;5013646;28;19961;-59
2023/03/13 09:43:14;;;;;;;;;;;14.80;99.90;;;;;;5016086;28;20379;-61
2023/03/13 09:45:41;;;;;;;;;;;14.80;99.90;;;;;;5008972;28;20308;-60
2023/03/13 09:48:17;;;;;;;;;;;14.80;99.90;;;;;;5013455;28;19914;-60
2023/03/13 09:50:45;;;;;;;;;;;14.80;99.90;;;;;;5014004;28;19918;-59
2023/03/13 09:53:13;;;;;;;;;;;14.80;99.90;;;;;;5013313;28;20287;-61
2023/03/13 09:55:40;;;;;;;;;;;14.80;99.90;;;;;;5013369;28;19914;-60
2023/03/13 09:58:21;;;;;;;;;;;14.80;99.90;;;;;;5010705;28;19968;-61
2023/03/13 10:00:50;;;;;;;;;;;14.90;99.90;;;;;;5013506;28;20310;-61
2023/03/13 10:03:27;;;;;;;;;;;14.90;99.90;;;;;;5012000;28;21025;-61
2023/03/13 10:05:54;;;;;;;;;;;15.00;99.90;;;;;;5015771;28;19917;-60
2023/03/13 10:08:29;;;;;;;;;;;15.10;99.90;;;;;;5012278;28;19910;-61
2023/03/13 10:10:57;;;;;;;;;;;15.30;99.90;;;;;;5013577;28;19909;-60
2023/03/13 10:13:30;;;;;;;;;;;15.40;99.90;;;;;;5013220;28;19971;-61
2023/03/13 10:16:05;;;;;;;;;;;15.50;99.90;;;;;;5013883;28;19967;-61
2023/03/13 10:18:31;;;;;;;;;;;15.50;99.90;;;;;;5012440;28;19913;-60
2023/03/13 10:21:01;;;;;;;;;;;15.50;99.90;;;;;;5013036;28;20004;-59
2023/03/13 10:23:35;;;;;;;;;;;15.50;99.90;;;;;;5012117;28;19920;-59
2023/03/13 10:26:00;;;;;;;;;;;15.70;99.90;;;;;;5012520;28;19952;-60
2023/03/13 10:28:26;;;;;;;;;;;15.90;99.90;;;;;;5012726;28;19953;-61
2023/03/13 10:30:59;;;;;;;;;;;16.00;99.90;;;;;;5011516;28;19956;-60
2023/03/13 10:33:26;;;;;;;;;;;16.30;99.90;;;;;;5016936;28;19917;-60
2023/03/13 10:35:59;;;;;;;;;;;16.70;99.90;;;;;;5012970;28;20395;-60
2023/03/13 10:38:24;;;;;;;;;;;16.70;99.90;;;;;;5003202;28;19938;-61
2023/03/13 10:41:00;;;;;;;;;;;16.80;99.90;;;;;;5005536;28;19922;-61
2023/03/13 10:43:26;;;;;;;;;;;16.80;99.90;;;;;;5004886;28;20004;-62
2023/03/13 10:45:51;;;;;;;;;;;16.70;99.90;;;;;;5006548;28;20008;-61
2023/03/13 10:48:18;;;;;;;;;;;16.70;99.90;;;;;;5010091;28;19910;-57
2023/03/13 10:50:45;;;;;;;;;;;16.70;99.90;;;;;;5012131;28;19917;-59
2023/03/13 10:53:29;;;;;;;;;;;16.70;99.90;;;;;;5009371;28;20356;-61
2023/03/13 10:56:15;;;;;;;;;;;16.70;99.90;;;;;;5013043;28;19913;-60
2023/03/13 10:58:43;;;;;;;;;;;16.80;99.90;;;;;;5008519;28;19941;-60
2023/03/13 11:01:20;;;;;;;;;;;16.80;99.90;;;;;;5011987;28;19921;-59
2023/03/13 11:03:46;;;;;;;;;;;16.70;99.90;;;;;;5011048;28;19921;-60
2023/03/13 11:06:22;;;;;;;;;;;16.90;99.90;;;;;;5012170;28;19914;-59
2023/03/13 11:08:47;;;;;;;;;;;17.10;99.90;;;;;;5010500;28;20000;-60
2023/03/13 11:11:18;;;;;;;;;;;17.20;99.90;;;;;;5011476;28;20352;-61
2023/03/13 11:13:43;;;;;;;;;;;17.20;99.90;;;;;;5011898;28;20364;-62
2023/03/13 11:16:19;;;;;;;;;;;17.10;99.90;;;;;;5011943;28;20004;-60
2023/03/13 11:18:51;;;;;;;;;;;17.00;99.90;;;;;;5012277;28;19913;-59
2023/03/13 11:21:22;;;;;;;;;;;17.20;99.90;;;;;;5007204;28;19910;-60
2023/03/13 11:24:08;;;;;;;;;;;17.30;99.90;;;;;;5011561;28;20469;-61
2023/03/13 11:26:33;;;;;;;;;;;17.30;99.90;;;;;;5006818;28;19929;-60
2023/03/13 11:29:11;;;;;;;;;;;17.30;99.90;;;;;;5011720;28;20497;-61
2023/03/13 11:31:38;;;;;;;;;;;17.40;99.90;;;;;;5010828;28;20044;-60
2023/03/13 11:34:17;;;;;;;;;;;17.50;99.90;;;;;;5006359;28;19972;-60
2023/03/13 11:36:52;;;;;;;;;;;17.50;99.90;;;;;;5000523;28;19944;-60
2023/03/13 11:39:20;;;;;;;;;;;17.60;99.90;;;;;;5003044;28;20008;-61
2023/03/13 11:42:07;;;;;;;;;;;17.70;99.90;;;;;;5005777;28;19918;-58
2023/03/13 11:44:41;;;;;;;;;;;17.70;99.90;;;;;;5009230;28;19968;-61
2023/03/13 11:47:16;;;;;;;;;;;17.80;99.90;;;;;;5006390;28;19913;-58
2023/03/13 11:49:41;;;;;;;;;;;17.80;99.90;;;;;;5000659;28;19910;-62
2023/03/13 11:52:22;;;;;;;;;;;18.30;99.90;;;;;;5006820;28;19960;-56
2023/03/13 11:54:53;;;;;;;;;;;18.60;99.90;;;;;;5004516;28;20422;-61
2023/03/13 11:57:28;;;;;;;;;;;18.50;99.90;;;;;;5004209;28;19983;-61
2023/03/13 12:00:12;;;;;;;;;;;18.20;99.90;;;;;;5005574;28;19979;-62
2023/03/13 12:02:47;;;;;;;;;;;18.10;99.90;;;;;;5002680;28;19924;-61
2023/03/13 12:05:14;;;;;;;;;;;17.70;99.90;;;;;;5004019;28;19959;-60
2023/03/13 12:07:55;;;;;;;;;;;17.50;99.90;;;;;;5001605;28;19925;-58
2023/03/13 12:10:29;;;;;;;;;;;17.50;99.90;;;;;;5001993;28;20800;-58
2023/03/13 12:12:57;;;;;;;;;;;17.40;99.90;;;;;;5000207;28;20332;-59
2023/03/13 12:15:49;;;;;;;;;;;17.40;99.90;;;;;;5003767;28;20013;-55
2023/03/13 12:18:17;;;;;;;;;;;17.40;99.90;;;;;;4996297;28;19917;-59
2023/03/13 12:20:48;;;;;;;;;;;17.70;99.90;;;;;;5005284;28;20008;-57
2023/03/13 12:23:32;;;;;;;;;;;17.70;99.90;;;;;;5004125;28;19921;-60
2023/03/13 12:26:13;;;;;;;;;;;17.80;99.90;;;;;;5003926;28;19925;-59
2023/03/13 12:29:00;;;;;;;;;;;17.90;99.90;;;;;;5000132;28;19924;-58
2023/03/13 12:31:45;;;;;;;;;;;17.60;99.90;;;;;;5006827;28;19918;-60
2023/03/13 12:34:19;;;;;;;;;;;17.60;99.90;;;;;;5001497;28;19924;-62
2023/03/13 12:36:52;;;;;;;;;;;17.60;99.90;;;;;;5007797;28;19917;-62
2023/03/13 12:39:46;;;;;;;;;;;17.60;99.90;;;;;;5008013;28;19918;-59
2023/03/13 12:42:35;;;;;;;;;;;17.50;99.90;;;;;;4993709;28;22198;-61
2023/03/13 12:45:01;;;;;;;;;;;17.50;99.90;;;;;;4996863;28;19921;-61
2023/03/13 12:47:26;;;;;;;;;;;17.40;99.90;;;;;;5006247;28;19917;-62
2023/03/13 12:50:10;;;;;;;;;;;17.60;99.90;;;;;;5003637;28;20043;-62
2023/03/13 12:52:45;;;;;;;;;;;17.70;99.90;;;;;;5003368;28;19917;-60
2023/03/13 12:55:17;;;;;;;;;;;17.70;99.90;;;;;;5002071;28;19921;-60
2023/03/13 12:58:02;;;;;;;;;;;17.60;99.90;;;;;;5010409;28;20379;-62
2023/03/13 13:00:28;;;;;;;;;;;17.50;99.90;;;;;;5002145;28;19925;-62
2023/03/13 13:03:04;;;;;;;;;;;17.60;99.90;;;;;;5006595;28;19910;-58
2023/03/13 13:05:29;;;;;;;;;;;17.90;99.90;;;;;;5005633;28;20362;-62
2023/03/13 13:07:55;;;;;;;;;;;17.90;99.90;;;;;;5005461;28;19953;-62
2023/03/13 13:10:25;;;;;;;;;;;17.80;99.90;;;;;;5008149;28;19988;-59
2023/03/13 13:13:16;;;;;;;;;;;17.70;99.90;;;;;;5004356;28;20318;-58
2023/03/13 13:15:46;;;;;;;;;;;17.60;99.90;;;;;;4998303;28;19923;-59
2023/03/13 13:18:28;;;;;;;;;;;17.50;99.90;;;;;;5010579;28;19913;-62
2023/03/13 13:21:06;;;;;;;;;;;17.50;99.90;;;;;;5008711;28;19924;-60
2023/03/13 13:23:52;;;;;;;;;;;17.40;99.90;;;;;;5003620;28;19920;-58
2023/03/13 13:26:28;;;;;;;;;;;17.30;99.90;;;;;;5006544;28;21427;-56
2023/03/13 13:29:00;;;;;;;;;;;17.20;99.90;;;;;;5004877;28;19917;-57
2023/03/13 13:31:44;;;;;;;;;;;17.10;99.90;;;;;;5003590;28;20026;-57
2023/03/13 13:34:33;;;;;;;;;;;17.10;99.90;;;;;;5001368;28;20016;-57
2023/03/13 13:37:21;;;;;;;;;;;17.00;99.90;;;;;;5007494;28;19920;-55
2023/03/13 13:39:51;;;;;;;;;;;17.00;99.90;;;;;;5005528;28;19929;-54
2023/03/13 13:42:31;;;;;;;;;;;17.10;99.90;;;;;;5002864;28;19953;-57
2023/03/13 13:45:15;;;;;;;;;;;17.10;99.90;;;;;;5002563;28;20102;-56
2023/03/13 13:47:42;;;;;;;;;;;17.10;99.90;;;;;;5007393;28;19965;-54
2023/03/13 13:50:17;;;;;;;;;;;17.00;99.90;;;;;;5006760;28;20220;-60
2023/03/13 13:52:43;;;;;;;;;;;16.80;99.90;;;;;;5011127;28;20378;-54
2023/03/13 13:55:20;;;;;;;;;;;16.80;99.90;;;;;;5005565;28;19932;-54
2023/03/13 13:57:48;;;;;;;;;;;16.80;99.90;;;;;;5005736;28;19921;-52
2023/03/13 14:00:18;;;;;;;;;;;17.00;99.90;;;;;;5007779;28;20300;-52
2023/03/13 14:02:56;;;;;;;;;;;17.00;99.90;;;;;;5009963;28;19945;-57
2023/03/13 14:05:25;;;;;;;;;;;17.00;99.90;;;;;;5007547;28;19967;-54
2023/03/13 14:08:09;;;;;;;;;;;17.00;99.90;;;;;;5010509;28;19940;-58
2023/03/13 14:10:45;;;;;;;;;;;17.00;99.90;;;;;;5010311;28;20406;-56
2023/03/13 14:13:13;;;;;;;;;;;17.10;99.90;;;;;;5003177;28;19914;-56
2023/03/13 14:15:40;;;;;;;;;;;17.20;99.90;;;;;;5007782;28;19924;-56
2023/03/13 14:18:23;;;;;;;;;;;17.20;99.90;;;;;;5007843;28;20055;-55
2023/03/13 14:20:48;;;;;;;;;;;17.40;99.90;;;;;;5005663;28;19913;-56
2023/03/13 14:23:14;;;;;;;;;;;17.40;99.90;;;;;;5007150;28;19913;-60
2023/03/13 14:25:49;;;;;;;;;;;17.40;99.90;;;;;;5007361;28;19928;-58
2023/03/13 14:28:22;;;;;;;;;;;17.40;99.90;;;;;;5005631;28;19921;-56